sensor_id;sensor_type;location;lat;lon;timestamp;temperature;humidity
12817;DHT22;6473;51.552;6.716;2023-03-05T00:04:04;4.40;99.90
12817;DHT22;6473;51.552;6.716;2023-03-05T00:11:30;4.40;99.90
12817;DHT22;6473;51.552;6.716;2023-03-05T00:13:59;4.40;99.90
12817;DHT22;6473;51.552;6.716;2023-03-05T00:18:57;4.30;99.90
12817;DHT22;6473;51.552;6.716;2023-03-05T00:21:31;4.40;99.90
12817;DHT22;6473;51.552;6.716;2023-03-05T00:23:59;4.30;99.90
12817;DHT22;6473;51.552;6.716;2023-03-05T00:26:28;4.40;99.90
12817;DHT22;6473;51.552;6.716;2023-03-05T00:28:57;4.30;99.90
12817;DHT22;6473;51.552;6.716;2023-03-05T00:31:26;5.80;99.90
12817;DHT22;6473;51.552;6.716;2023-03-05T00:33:56;4.30;99.90
12817;DHT22;6473;51.552;6.716;2023-03-05T00:38:56;4.30;99.90
12817;DHT22;6473;51.552;6.716;2023-03-05T00:56:11;0.80;99.90
12817;DHT22;6473;51.552;6.716;2023-03-05T01:03:34;3.20;99.90
12817;DHT22;6473;51.552;6.716;2023-03-05T01:06:07;4.30;99.90
12817;DHT22;6473;51.552;6.716;2023-03-05T01:08:36;4.20;99.90
12817;DHT22;6473;51.552;6.716;2023-03-05T01:11:05;2.00;99.90
12817;DHT22;6473;51.552;6.716;2023-03-05T01:13:34;4.20;99.90
12817;DHT22;6473;51.552;6.716;2023-03-05T01:23:28;4.20;99.90
12817;DHT22;6473;51.552;6.716;2023-03-05T01:25:56;6.50;99.90
12817;DHT22;6473;51.552;6.716;2023-03-05T01:28:30;4.20;99.90
12817;DHT22;6473;51.552;6.716;2023-03-05T01:30:59;4.20;99.90
12817;DHT22;6473;51.552;6.716;2023-03-05T01:38:27;4.30;99.90
12817;DHT22;6473;51.552;6.716;2023-03-05T01:43:24;4.30;99.90
12817;DHT22;6473;51.552;6.716;2023-03-05T01:46:26;4.30;99.90
12817;DHT22;6473;51.552;6.716;2023-03-05T01:49:00;4.30;99.90
12817;DHT22;6473;51.552;6.716;2023-03-05T01:51:31;4.30;99.90
12817;DHT22;6473;51.552;6.716;2023-03-05T01:54:00;4.20;99.90
12817;DHT22;6473;51.552;6.716;2023-03-05T01:58:59;4.20;99.90
12817;DHT22;6473;51.552;6.716;2023-03-05T02:01:38;4.10;99.90
12817;DHT22;6473;51.552;6.716;2023-03-05T02:04:08;4.20;99.90
12817;DHT22;6473;51.552;6.716;2023-03-05T02:06:36;4.20;99.90
12817;DHT22;6473;51.552;6.716;2023-03-05T02:09:04;4.10;99.90
12817;DHT22;6473;51.552;6.716;2023-03-05T02:11:31;4.10;99.90
12817;DHT22;6473;51.552;6.716;2023-03-05T02:13:59;4.10;99.90
12817;DHT22;6473;51.552;6.716;2023-03-05T02:16:28;3.90;99.90
12817;DHT22;6473;51.552;6.716;2023-03-05T02:19:04;3.90;99.90
12817;DHT22;6473;51.552;6.716;2023-03-05T02:21:38;4.00;99.90
12817;DHT22;6473;51.552;6.716;2023-03-05T02:24:07;4.00;99.90
12817;DHT22;6473;51.552;6.716;2023-03-05T02:26:35;4.00;99.90
12817;DHT22;6473;51.552;6.716;2023-03-05T02:29:03;4.00;99.90
12817;DHT22;6473;51.552;6.716;2023-03-05T02:36:27;4.10;99.90
12817;DHT22;6473;51.552;6.716;2023-03-05T02:38:56;4.10;99.90
12817;DHT22;6473;51.552;6.716;2023-03-05T02:46:21;4.10;99.90
12817;DHT22;6473;51.552;6.716;2023-03-05T02:48:48;4.00;99.90
12817;DHT22;6473;51.552;6.716;2023-03-05T02:56:12;4.00;99.90
12817;DHT22;6473;51.552;6.716;2023-03-05T02:58:40;4.00;99.90
12817;DHT22;6473;51.552;6.716;2023-03-05T03:06:02;4.00;99.90
12817;DHT22;6473;51.552;6.716;2023-03-05T03:08:29;3.90;99.90
12817;DHT22;6473;51.552;6.716;2023-03-05T03:11:03;3.90;99.90
12817;DHT22;6473;51.552;6.716;2023-03-05T03:13:32;4.00;99.90
12817;DHT22;6473;51.552;6.716;2023-03-05T03:16:03;3.90;99.90
12817;DHT22;6473;51.552;6.716;2023-03-05T03:18:30;3.90;99.90
12817;DHT22;6473;51.552;6.716;2023-03-05T03:20:57;3.90;99.90
12817;DHT22;6473;51.552;6.716;2023-03-05T03:23:25;3.90;99.90
12817;DHT22;6473;51.552;6.716;2023-03-05T03:25:52;3.80;99.90
12817;DHT22;6473;51.552;6.716;2023-03-05T03:28:21;3.80;99.90
12817;DHT22;6473;51.552;6.716;2023-03-05T03:30:49;3.70;99.90
12817;DHT22;6473;51.552;6.716;2023-03-05T03:35:44;3.60;99.90
12817;DHT22;6473;51.552;6.716;2023-03-05T03:40:39;0.80;99.90
12817;DHT22;6473;51.552;6.716;2023-03-05T03:45:34;3.50;99.90
12817;DHT22;6473;51.552;6.716;2023-03-05T03:48:07;3.50;99.90
12817;DHT22;6473;51.552;6.716;2023-03-05T03:50:36;3.50;99.90
12817;DHT22;6473;51.552;6.716;2023-03-05T03:55:32;3.50;99.90
12817;DHT22;6473;51.552;6.716;2023-03-05T03:57:59;3.50;99.90
12817;DHT22;6473;51.552;6.716;2023-03-05T04:00:26;3.40;99.90
12817;DHT22;6473;51.552;6.716;2023-03-05T04:02:53;3.40;99.90
12817;DHT22;6473;51.552;6.716;2023-03-05T04:05:22;3.40;99.90
12817;DHT22;6473;51.552;6.716;2023-03-05T04:07:49;4.20;99.90
12817;DHT22;6473;51.552;6.716;2023-03-05T04:10:16;3.50;99.90
12817;DHT22;6473;51.552;6.716;2023-03-05T04:12:43;3.40;99.90
12817;DHT22;6473;51.552;6.716;2023-03-05T04:20:07;3.30;99.90
12817;DHT22;6473;51.552;6.716;2023-03-05T04:22:36;3.30;99.90
12817;DHT22;6473;51.552;6.716;2023-03-05T04:27:32;3.30;99.90
12817;DHT22;6473;51.552;6.716;2023-03-05T04:30:00;3.20;99.90
12817;DHT22;6473;51.552;6.716;2023-03-05T04:32:27;3.20;99.90
12817;DHT22;6473;51.552;6.716;2023-03-05T04:34:54;3.30;99.90
12817;DHT22;6473;51.552;6.716;2023-03-05T04:39:50;6.10;99.90
12817;DHT22;6473;51.552;6.716;2023-03-05T04:42:17;3.40;99.90
12817;DHT22;6473;51.552;6.716;2023-03-05T04:44:45;3.40;99.90
12817;DHT22;6473;51.552;6.716;2023-03-05T04:47:12;3.30;99.90
12817;DHT22;6473;51.552;6.716;2023-03-05T04:49:38;3.20;99.90
12817;DHT22;6473;51.552;6.716;2023-03-05T04:54:34;3.20;99.90
12817;DHT22;6473;51.552;6.716;2023-03-05T04:57:02;3.20;99.90
12817;DHT22;6473;51.552;6.716;2023-03-05T04:59:29;3.20;99.90
12817;DHT22;6473;51.552;6.716;2023-03-05T05:06:54;3.20;99.90
12817;DHT22;6473;51.552;6.716;2023-03-05T05:09:22;4.10;99.90
12817;DHT22;6473;51.552;6.716;2023-03-05T05:11:49;3.30;99.90
12817;DHT22;6473;51.552;6.716;2023-03-05T05:14:17;3.30;99.90
12817;DHT22;6473;51.552;6.716;2023-03-05T05:16:44;3.40;99.90
12817;DHT22;6473;51.552;6.716;2023-03-05T05:19:11;3.40;99.90
12817;DHT22;6473;51.552;6.716;2023-03-05T05:24:06;3.40;99.90
12817;DHT22;6473;51.552;6.716;2023-03-05T05:26:33;3.40;99.90
12817;DHT22;6473;51.552;6.716;2023-03-05T05:29:00;3.30;99.90
12817;DHT22;6473;51.552;6.716;2023-03-05T05:31:28;3.40;99.90
12817;DHT22;6473;51.552;6.716;2023-03-05T05:41:17;3.30;99.90
12817;DHT22;6473;51.552;6.716;2023-03-05T05:46:14;3.20;99.90
12817;DHT22;6473;51.552;6.716;2023-03-05T05:48:43;3.20;99.90
12817;DHT22;6473;51.552;6.716;2023-03-05T05:51:12;3.20;99.90
12817;DHT22;6473;51.552;6.716;2023-03-05T05:53:40;1.60;99.90
12817;DHT22;6473;51.552;6.716;2023-03-05T05:56:08;3.20;99.90
12817;DHT22;6473;51.552;6.716;2023-03-05T05:58:37;-0.10;99.90
12817;DHT22;6473;51.552;6.716;2023-03-05T06:01:11;3.20;99.90
12817;DHT22;6473;51.552;6.716;2023-03-05T06:06:09;3.10;99.90
12817;DHT22;6473;51.552;6.716;2023-03-05T06:08:36;3.20;99.90
12817;DHT22;6473;51.552;6.716;2023-03-05T06:15:58;3.20;99.90
12817;DHT22;6473;51.552;6.716;2023-03-05T06:20:54;3.20;99.90
12817;DHT22;6473;51.552;6.716;2023-03-05T06:23:22;3.20;99.90
12817;DHT22;6473;51.552;6.716;2023-03-05T06:33:11;3.30;99.90
12817;DHT22;6473;51.552;6.716;2023-03-05T06:35:39;3.30;99.90
12817;DHT22;6473;51.552;6.716;2023-03-05T06:38:06;3.30;99.90
12817;DHT22;6473;51.552;6.716;2023-03-05T06:40:37;3.30;99.90
12817;DHT22;6473;51.552;6.716;2023-03-05T06:45:32;3.40;99.90
12817;DHT22;6473;51.552;6.716;2023-03-05T06:52:54;3.50;99.90
12817;DHT22;6473;51.552;6.716;2023-03-05T06:55:21;3.50;99.90
12817;DHT22;6473;51.552;6.716;2023-03-05T06:57:50;3.60;99.90
12817;DHT22;6473;51.552;6.716;2023-03-05T07:00:17;3.40;99.90
12817;DHT22;6473;51.552;6.716;2023-03-05T07:02:44;3.60;99.90
12817;DHT22;6473;51.552;6.716;2023-03-05T07:05:11;3.60;99.90
12817;DHT22;6473;51.552;6.716;2023-03-05T07:07:38;3.60;99.90
12817;DHT22;6473;51.552;6.716;2023-03-05T07:10:06;3.60;99.90
12817;DHT22;6473;51.552;6.716;2023-03-05T07:12:34;3.60;99.90
12817;DHT22;6473;51.552;6.716;2023-03-05T07:15:05;3.60;99.90
12817;DHT22;6473;51.552;6.716;2023-03-05T07:20:00;3.60;99.90
12817;DHT22;6473;51.552;6.716;2023-03-05T07:22:27;3.60;99.90
12817;DHT22;6473;51.552;6.716;2023-03-05T07:27:22;3.70;99.90
12817;DHT22;6473;51.552;6.716;2023-03-05T07:32:20;3.70;99.90
12817;DHT22;6473;51.552;6.716;2023-03-05T07:37:14;3.80;99.90
12817;DHT22;6473;51.552;6.716;2023-03-05T07:42:09;3.80;99.90
12817;DHT22;6473;51.552;6.716;2023-03-05T07:47:16;3.90;99.90
12817;DHT22;6473;51.552;6.716;2023-03-05T07:49:45;3.90;99.90
12817;DHT22;6473;51.552;6.716;2023-03-05T07:52:12;4.00;99.90
12817;DHT22;6473;51.552;6.716;2023-03-05T07:57:07;4.20;99.90
12817;DHT22;6473;51.552;6.716;2023-03-05T08:02:02;8.40;99.90
12817;DHT22;6473;51.552;6.716;2023-03-05T08:06:58;4.20;99.90
12817;DHT22;6473;51.552;6.716;2023-03-05T08:09:26;5.40;99.90
12817;DHT22;6473;51.552;6.716;2023-03-05T08:14:21;4.30;99.90
12817;DHT22;6473;51.552;6.716;2023-03-05T08:19:17;4.20;99.90
12817;DHT22;6473;51.552;6.716;2023-03-05T08:21:44;4.30;99.90
12817;DHT22;6473;51.552;6.716;2023-03-05T08:24:13;4.30;99.90
12817;DHT22;6473;51.552;6.716;2023-03-05T08:29:08;4.30;99.90
12817;DHT22;6473;51.552;6.716;2023-03-05T08:31:36;4.30;99.90
12817;DHT22;6473;51.552;6.716;2023-03-05T08:41:26;4.40;99.90
12817;DHT22;6473;51.552;6.716;2023-03-05T08:51:17;4.50;99.90
12817;DHT22;6473;51.552;6.716;2023-03-05T08:53:45;4.60;99.90
12817;DHT22;6473;51.552;6.716;2023-03-05T08:56:13;4.70;99.90
12817;DHT22;6473;51.552;6.716;2023-03-05T08:58:41;4.80;99.90
12817;DHT22;6473;51.552;6.716;2023-03-05T09:01:09;4.90;99.90
12817;DHT22;6473;51.552;6.716;2023-03-05T09:03:36;4.90;99.90
12817;DHT22;6473;51.552;6.716;2023-03-05T09:06:05;5.00;99.90
12817;DHT22;6473;51.552;6.716;2023-03-05T09:08:33;5.00;99.90
12817;DHT22;6473;51.552;6.716;2023-03-05T09:11:00;5.20;99.90
12817;DHT22;6473;51.552;6.716;2023-03-05T09:13:28;5.20;99.90
12817;DHT22;6473;51.552;6.716;2023-03-05T09:15:58;5.40;99.90
12817;DHT22;6473;51.552;6.716;2023-03-05T09:18:25;5.60;99.90
12817;DHT22;6473;51.552;6.716;2023-03-05T09:20:52;5.80;99.90
12817;DHT22;6473;51.552;6.716;2023-03-05T09:23:19;5.90;99.90
12817;DHT22;6473;51.552;6.716;2023-03-05T09:25:46;6.00;99.90
12817;DHT22;6473;51.552;6.716;2023-03-05T09:28:14;6.00;99.90
12817;DHT22;6473;51.552;6.716;2023-03-05T09:30:41;5.90;99.90
12817;DHT22;6473;51.552;6.716;2023-03-05T09:33:10;6.10;99.90
12817;DHT22;6473;51.552;6.716;2023-03-05T09:35:37;6.20;99.90
12817;DHT22;6473;51.552;6.716;2023-03-05T09:38:04;6.30;99.90
12817;DHT22;6473;51.552;6.716;2023-03-05T09:40:38;6.40;99.90
12817;DHT22;6473;51.552;6.716;2023-03-05T09:43:18;6.40;99.90
12817;DHT22;6473;51.552;6.716;2023-03-05T09:45:57;6.50;99.90
12817;DHT22;6473;51.552;6.716;2023-03-05T09:48:47;6.70;99.90
12817;DHT22;6473;51.552;6.716;2023-03-05T09:51:19;6.50;99.90
12817;DHT22;6473;51.552;6.716;2023-03-05T09:53:50;6.80;99.90
12817;DHT22;6473;51.552;6.716;2023-03-05T09:56:22;6.80;99.90
12817;DHT22;6473;51.552;6.716;2023-03-05T09:58:51;6.80;99.90
12817;DHT22;6473;51.552;6.716;2023-03-05T10:01:21;6.80;99.90
12817;DHT22;6473;51.552;6.716;2023-03-05T10:03:56;6.80;99.90
12817;DHT22;6473;51.552;6.716;2023-03-05T10:06:28;6.80;99.90
12817;DHT22;6473;51.552;6.716;2023-03-05T10:08:57;6.90;99.90
12817;DHT22;6473;51.552;6.716;2023-03-05T10:11:42;6.90;99.90
12817;DHT22;6473;51.552;6.716;2023-03-05T10:14:14;6.70;99.90
12817;DHT22;6473;51.552;6.716;2023-03-05T10:16:55;6.60;99.90
12817;DHT22;6473;51.552;6.716;2023-03-05T10:19:48;6.70;99.90
12817;DHT22;6473;51.552;6.716;2023-03-05T10:22:22;6.60;99.90
12817;DHT22;6473;51.552;6.716;2023-03-05T10:25:02;6.50;99.90
12817;DHT22;6473;51.552;6.716;2023-03-05T10:27:39;6.40;99.90
12817;DHT22;6473;51.552;6.716;2023-03-05T10:30:20;6.30;99.90
12817;DHT22;6473;51.552;6.716;2023-03-05T10:32:53;6.20;99.90
12817;DHT22;6473;51.552;6.716;2023-03-05T10:35:59;6.30;99.90
12817;DHT22;6473;51.552;6.716;2023-03-05T10:38:50;6.30;99.90
12817;DHT22;6473;51.552;6.716;2023-03-05T10:41:27;6.30;99.90
12817;DHT22;6473;51.552;6.716;2023-03-05T10:44:02;6.20;99.90
12817;DHT22;6473;51.552;6.716;2023-03-05T10:46:33;6.30;99.90
12817;DHT22;6473;51.552;6.716;2023-03-05T10:49:05;6.10;99.90
12817;DHT22;6473;51.552;6.716;2023-03-05T10:51:45;6.10;99.90
12817;DHT22;6473;51.552;6.716;2023-03-05T10:54:18;6.10;99.90
12817;DHT22;6473;51.552;6.716;2023-03-05T10:56:50;6.30;99.90
12817;DHT22;6473;51.552;6.716;2023-03-05T10:59:17;6.40;99.90
12817;DHT22;6473;51.552;6.716;2023-03-05T11:02:01;6.60;99.90
12817;DHT22;6473;51.552;6.716;2023-03-05T11:04:33;7.10;99.90
12817;DHT22;6473;51.552;6.716;2023-03-05T11:07:11;7.50;99.90
12817;DHT22;6473;51.552;6.716;2023-03-05T11:10:03;7.90;99.90
12817;DHT22;6473;51.552;6.716;2023-03-05T11:12:33;7.90;99.90
12817;DHT22;6473;51.552;6.716;2023-03-05T11:15:06;8.00;99.90
12817;DHT22;6473;51.552;6.716;2023-03-05T11:17:47;8.00;99.90
12817;DHT22;6473;51.552;6.716;2023-03-05T11:20:32;8.30;99.90
12817;DHT22;6473;51.552;6.716;2023-03-05T11:23:04;8.60;99.90
12817;DHT22;6473;51.552;6.716;2023-03-05T11:25:33;8.50;98.00
12817;DHT22;6473;51.552;6.716;2023-03-05T11:28:01;8.70;99.90
12817;DHT22;6473;51.552;6.716;2023-03-05T11:30:30;8.80;99.90
12817;DHT22;6473;51.552;6.716;2023-03-05T11:33:08;8.70;97.50
12817;DHT22;6473;51.552;6.716;2023-03-05T11:35:37;8.80;95.10
12817;DHT22;6473;51.552;6.716;2023-03-05T11:38:15;8.80;93.70
12817;DHT22;6473;51.552;6.716;2023-03-05T11:43:14;8.80;96.00
12817;DHT22;6473;51.552;6.716;2023-03-05T11:45:43;8.60;94.40
12817;DHT22;6473;51.552;6.716;2023-03-05T11:48:17;8.50;98.10
12817;DHT22;6473;51.552;6.716;2023-03-05T11:50:48;8.30;98.00
12817;DHT22;6473;51.552;6.716;2023-03-05T11:53:21;8.30;96.80
12817;DHT22;6473;51.552;6.716;2023-03-05T11:55:52;8.10;95.50
12817;DHT22;6473;51.552;6.716;2023-03-05T11:58:26;8.10;96.20
12817;DHT22;6473;51.552;6.716;2023-03-05T12:00:54;8.00;97.20
12817;DHT22;6473;51.552;6.716;2023-03-05T12:03:24;7.90;95.60
12817;DHT22;6473;51.552;6.716;2023-03-05T12:05:55;7.90;98.70
12817;DHT22;6473;51.552;6.716;2023-03-05T12:08:28;8.00;99.80
12817;DHT22;6473;51.552;6.716;2023-03-05T12:10:58;7.80;98.40
12817;DHT22;6473;51.552;6.716;2023-03-05T12:13:30;7.80;99.90
12817;DHT22;6473;51.552;6.716;2023-03-05T12:16:06;7.80;99.90
12817;DHT22;6473;51.552;6.716;2023-03-05T12:18:47;7.80;99.90
12817;DHT22;6473;51.552;6.716;2023-03-05T12:21:22;7.80;99.90
12817;DHT22;6473;51.552;6.716;2023-03-05T12:23:56;7.70;99.10
12817;DHT22;6473;51.552;6.716;2023-03-05T12:26:54;7.70;99.90
12817;DHT22;6473;51.552;6.716;2023-03-05T12:29:37;7.80;99.50
12817;DHT22;6473;51.552;6.716;2023-03-05T12:35:26;8.20;97.50
12817;DHT22;6473;51.552;6.716;2023-03-05T12:38:27;8.40;98.00
12817;DHT22;6473;51.552;6.716;2023-03-05T12:44:16;8.80;97.50
12817;DHT22;6473;51.552;6.716;2023-03-05T12:49:36;9.10;93.40
12817;DHT22;6473;51.552;6.716;2023-03-05T12:52:11;9.20;92.60
12817;DHT22;6473;51.552;6.716;2023-03-05T12:54:41;9.50;89.70
12817;DHT22;6473;51.552;6.716;2023-03-05T12:57:16;9.90;79.70
12817;DHT22;6473;51.552;6.716;2023-03-05T12:59:52;10.10;63.00
12817;DHT22;6473;51.552;6.716;2023-03-05T13:02:25;10.00;67.00
12817;DHT22;6473;51.552;6.716;2023-03-05T13:04:56;10.20;73.10
12817;DHT22;6473;51.552;6.716;2023-03-05T13:07:27;10.10;58.70
12817;DHT22;6473;51.552;6.716;2023-03-05T13:09:56;10.40;49.80
12817;DHT22;6473;51.552;6.716;2023-03-05T13:12:26;9.90;43.20
12817;DHT22;6473;51.552;6.716;2023-03-05T13:14:58;9.90;53.70
12817;DHT22;6473;51.552;6.716;2023-03-05T13:17:32;10.10;52.70
12817;DHT22;6473;51.552;6.716;2023-03-05T13:20:03;10.20;60.80
12817;DHT22;6473;51.552;6.716;2023-03-05T13:23:12;10.50;60.50
12817;DHT22;6473;51.552;6.716;2023-03-05T13:30:50;10.70;31.30
12817;DHT22;6473;51.552;6.716;2023-03-05T13:33:22;10.90;23.50
12817;DHT22;6473;51.552;6.716;2023-03-05T13:38:26;11.70;3.10
12817;DHT22;6473;51.552;6.716;2023-03-05T13:41:02;11.80;1.00
12817;DHT22;6473;51.552;6.716;2023-03-05T13:43:29;11.40;1.00
12817;DHT22;6473;51.552;6.716;2023-03-05T13:45:57;11.00;4.30
12817;DHT22;6473;51.552;6.716;2023-03-05T13:48:25;11.20;3.10
12817;DHT22;6473;51.552;6.716;2023-03-05T13:50:55;11.00;1.00
12817;DHT22;6473;51.552;6.716;2023-03-05T13:53:26;12.20;9.80
12817;DHT22;6473;51.552;6.716;2023-03-05T13:55:56;11.70;1.00
12817;DHT22;6473;51.552;6.716;2023-03-05T13:58:43;11.80;1.00
12817;DHT22;6473;51.552;6.716;2023-03-05T14:01:14;12.10;1.00
12817;DHT22;6473;51.552;6.716;2023-03-05T14:03:44;11.10;1.00
12817;DHT22;6473;51.552;6.716;2023-03-05T14:06:18;12.00;1.00
12817;DHT22;6473;51.552;6.716;2023-03-05T14:08:50;12.00;1.00
12817;DHT22;6473;51.552;6.716;2023-03-05T14:11:18;12.00;1.00
12817;DHT22;6473;51.552;6.716;2023-03-05T14:13:46;11.60;1.00
12817;DHT22;6473;51.552;6.716;2023-03-05T14:16:26;10.40;17.10
12817;DHT22;6473;51.552;6.716;2023-03-05T14:18:59;10.20;25.20
12817;DHT22;6473;51.552;6.716;2023-03-05T14:21:42;10.00;40.60
12817;DHT22;6473;51.552;6.716;2023-03-05T14:24:14;9.80;38.10
12817;DHT22;6473;51.552;6.716;2023-03-05T14:29:28;8.20;64.60
12817;DHT22;6473;51.552;6.716;2023-03-05T14:31:57;9.80;56.90
12817;DHT22;6473;51.552;6.716;2023-03-05T14:34:27;10.40;54.60
12817;DHT22;6473;51.552;6.716;2023-03-05T14:36:57;10.70;43.60
12817;DHT22;6473;51.552;6.716;2023-03-05T14:39:36;10.10;37.40
12817;DHT22;6473;51.552;6.716;2023-03-05T14:50:35;9.20;59.10
12817;DHT22;6473;51.552;6.716;2023-03-05T14:53:05;9.70;47.30
12817;DHT22;6473;51.552;6.716;2023-03-05T14:55:35;10.40;38.50
12817;DHT22;6473;51.552;6.716;2023-03-05T14:58:06;10.30;25.40
12817;DHT22;6473;51.552;6.716;2023-03-05T15:03:04;11.30;1.00
12817;DHT22;6473;51.552;6.716;2023-03-05T15:05:31;12.00;1.00
12817;DHT22;6473;51.552;6.716;2023-03-05T15:10:26;12.50;1.00
12817;DHT22;6473;51.552;6.716;2023-03-05T15:12:54;12.50;1.00
12817;DHT22;6473;51.552;6.716;2023-03-05T15:17:50;11.20;1.00
12817;DHT22;6473;51.552;6.716;2023-03-05T15:20:22;11.00;1.00
12817;DHT22;6473;51.552;6.716;2023-03-05T15:22:50;10.20;15.40
12817;DHT22;6473;51.552;6.716;2023-03-05T15:25:17;9.50;33.60
12817;DHT22;6473;51.552;6.716;2023-03-05T15:27:44;9.00;45.20
12817;DHT22;6473;51.552;6.716;2023-03-05T15:30:20;8.70;63.90
12817;DHT22;6473;51.552;6.716;2023-03-05T15:40:47;7.90;91.70
12817;DHT22;6473;51.552;6.716;2023-03-05T15:43:14;7.70;93.30
12817;DHT22;6473;51.552;6.716;2023-03-05T15:45:42;7.70;94.20
12817;DHT22;6473;51.552;6.716;2023-03-05T15:48:09;7.40;96.50
12817;DHT22;6473;51.552;6.716;2023-03-05T15:50:39;7.50;96.90
12817;DHT22;6473;51.552;6.716;2023-03-05T15:53:06;7.40;97.90
12817;DHT22;6473;51.552;6.716;2023-03-05T15:55:36;7.50;98.20
12817;DHT22;6473;51.552;6.716;2023-03-05T15:58:05;7.30;97.40
12817;DHT22;6473;51.552;6.716;2023-03-05T16:00:34;7.30;98.00
12817;DHT22;6473;51.552;6.716;2023-03-05T16:03:03;7.20;98.70
12817;DHT22;6473;51.552;6.716;2023-03-05T16:05:32;7.10;99.00
12817;DHT22;6473;51.552;6.716;2023-03-05T16:07:59;7.20;98.90
12817;DHT22;6473;51.552;6.716;2023-03-05T16:10:27;7.20;98.10
12817;DHT22;6473;51.552;6.716;2023-03-05T16:13:00;7.10;98.00
12817;DHT22;6473;51.552;6.716;2023-03-05T16:15:29;7.10;98.00
12817;DHT22;6473;51.552;6.716;2023-03-05T16:17:58;7.20;98.90
12817;DHT22;6473;51.552;6.716;2023-03-05T16:20:27;7.10;97.50
12817;DHT22;6473;51.552;6.716;2023-03-05T16:25:21;6.90;97.10
12817;DHT22;6473;51.552;6.716;2023-03-05T16:27:47;6.90;98.30
12817;DHT22;6473;51.552;6.716;2023-03-05T16:30:15;6.90;99.00
12817;DHT22;6473;51.552;6.716;2023-03-05T16:32:42;6.90;99.50
12817;DHT22;6473;51.552;6.716;2023-03-05T16:37:39;6.80;99.90
12817;DHT22;6473;51.552;6.716;2023-03-05T16:40:08;6.80;99.90
12817;DHT22;6473;51.552;6.716;2023-03-05T16:42:36;6.70;99.90
12817;DHT22;6473;51.552;6.716;2023-03-05T16:45:04;6.70;99.90
12817;DHT22;6473;51.552;6.716;2023-03-05T16:52:27;6.50;99.90
12817;DHT22;6473;51.552;6.716;2023-03-05T16:54:55;6.50;99.90
12817;DHT22;6473;51.552;6.716;2023-03-05T16:59:50;6.30;99.90
12817;DHT22;6473;51.552;6.716;2023-03-05T17:02:17;6.40;99.90
12817;DHT22;6473;51.552;6.716;2023-03-05T17:04:44;6.40;99.90
12817;DHT22;6473;51.552;6.716;2023-03-05T17:07:11;6.40;99.90
12817;DHT22;6473;51.552;6.716;2023-03-05T17:12:07;6.30;99.90
12817;DHT22;6473;51.552;6.716;2023-03-05T17:14:34;6.30;99.90
12817;DHT22;6473;51.552;6.716;2023-03-05T17:49:07;6.10;99.90
12817;DHT22;6473;51.552;6.716;2023-03-05T18:01:29;6.00;99.90
12817;DHT22;6473;51.552;6.716;2023-03-05T18:08:55;5.80;99.90
12817;DHT22;6473;51.552;6.716;2023-03-05T18:11:24;5.80;99.90
12817;DHT22;6473;51.552;6.716;2023-03-05T18:21:23;5.60;99.90
12817;DHT22;6473;51.552;6.716;2023-03-05T18:31:19;5.60;99.90
12817;DHT22;6473;51.552;6.716;2023-03-05T18:38:43;5.40;99.90
12817;DHT22;6473;51.552;6.716;2023-03-05T18:41:17;5.50;99.90
12817;DHT22;6473;51.552;6.716;2023-03-05T18:56:10;5.40;99.90
12817;DHT22;6473;51.552;6.716;2023-03-05T18:58:40;5.40;99.90
12817;DHT22;6473;51.552;6.716;2023-03-05T19:06:04;5.30;99.90
12817;DHT22;6473;51.552;6.716;2023-03-05T19:11:00;5.30;99.90
12817;DHT22;6473;51.552;6.716;2023-03-05T19:13:28;5.20;99.90
12817;DHT22;6473;51.552;6.716;2023-03-05T19:16:06;5.20;99.90
12817;DHT22;6473;51.552;6.716;2023-03-05T19:18:33;5.20;99.90
12817;DHT22;6473;51.552;6.716;2023-03-05T19:23:38;5.10;99.90
12817;DHT22;6473;51.552;6.716;2023-03-05T19:33:28;5.10;99.90
12817;DHT22;6473;51.552;6.716;2023-03-05T19:35:55;5.00;99.90
12817;DHT22;6473;51.552;6.716;2023-03-05T19:38:24;5.00;99.90
12817;DHT22;6473;51.552;6.716;2023-03-05T19:45:47;4.90;99.90
12817;DHT22;6473;51.552;6.716;2023-03-05T19:53:08;4.90;99.90
12817;DHT22;6473;51.552;6.716;2023-03-05T19:55:38;4.90;99.90
12817;DHT22;6473;51.552;6.716;2023-03-05T19:58:06;4.90;99.90
12817;DHT22;6473;51.552;6.716;2023-03-05T20:00:35;4.90;99.90
12817;DHT22;6473;51.552;6.716;2023-03-05T20:05:31;4.90;99.90
12817;DHT22;6473;51.552;6.716;2023-03-05T20:12:53;4.80;99.90
12817;DHT22;6473;51.552;6.716;2023-03-05T20:17:53;4.80;99.90
12817;DHT22;6473;51.552;6.716;2023-03-05T20:20:22;5.00;99.90
12817;DHT22;6473;51.552;6.716;2023-03-05T20:25:17;4.80;99.90
12817;DHT22;6473;51.552;6.716;2023-03-05T20:27:46;4.80;99.90
12817;DHT22;6473;51.552;6.716;2023-03-05T20:32:42;4.80;99.90
12817;DHT22;6473;51.552;6.716;2023-03-05T20:35:12;4.70;99.90
12817;DHT22;6473;51.552;6.716;2023-03-05T20:40:15;4.70;99.90
12817;DHT22;6473;51.552;6.716;2023-03-05T20:42:42;4.70;99.90
12817;DHT22;6473;51.552;6.716;2023-03-05T20:50:07;4.60;99.90
12817;DHT22;6473;51.552;6.716;2023-03-05T21:04:55;4.50;99.90
12817;DHT22;6473;51.552;6.716;2023-03-05T21:12:22;4.50;99.90
12817;DHT22;6473;51.552;6.716;2023-03-05T21:27:27;4.30;99.90
12817;DHT22;6473;51.552;6.716;2023-03-05T21:32:22;4.30;99.90
12817;DHT22;6473;51.552;6.716;2023-03-05T21:37:16;4.20;99.90
12817;DHT22;6473;51.552;6.716;2023-03-05T21:42:12;4.20;99.90
12817;DHT22;6473;51.552;6.716;2023-03-05T21:49:34;4.20;99.90
12817;DHT22;6473;51.552;6.716;2023-03-05T21:52:01;4.20;99.90
12817;DHT22;6473;51.552;6.716;2023-03-05T21:59:27;4.00;99.90
12817;DHT22;6473;51.552;6.716;2023-03-05T22:04:23;4.00;99.90
12817;DHT22;6473;51.552;6.716;2023-03-05T22:09:19;4.00;99.90
12817;DHT22;6473;51.552;6.716;2023-03-05T22:16:40;3.90;99.90
12817;DHT22;6473;51.552;6.716;2023-03-05T22:19:09;3.90;99.90
12817;DHT22;6473;51.552;6.716;2023-03-05T22:24:03;3.90;99.90
12817;DHT22;6473;51.552;6.716;2023-03-05T22:26:33;3.90;99.90
12817;DHT22;6473;51.552;6.716;2023-03-05T22:29:01;4.00;99.90
12817;DHT22;6473;51.552;6.716;2023-03-05T22:33:56;4.00;99.90
12817;DHT22;6473;51.552;6.716;2023-03-05T22:36:24;3.80;99.90
12817;DHT22;6473;51.552;6.716;2023-03-05T22:38:51;3.90;99.90
12817;DHT22;6473;51.552;6.716;2023-03-05T22:41:19;3.80;99.90
12817;DHT22;6473;51.552;6.716;2023-03-05T22:43:47;3.80;99.90
12817;DHT22;6473;51.552;6.716;2023-03-05T22:46:16;3.90;99.90
12817;DHT22;6473;51.552;6.716;2023-03-05T22:48:44;3.80;99.90
12817;DHT22;6473;51.552;6.716;2023-03-05T22:51:12;3.80;99.90
12817;DHT22;6473;51.552;6.716;2023-03-05T22:56:10;3.80;99.90
12817;DHT22;6473;51.552;6.716;2023-03-05T22:58:38;3.70;99.90
12817;DHT22;6473;51.552;6.716;2023-03-05T23:01:10;3.70;99.90
12817;DHT22;6473;51.552;6.716;2023-03-05T23:03:37;3.70;99.90
12817;DHT22;6473;51.552;6.716;2023-03-05T23:06:04;3.70;99.90
12817;DHT22;6473;51.552;6.716;2023-03-05T23:08:31;3.70;99.90
12817;DHT22;6473;51.552;6.716;2023-03-05T23:11:00;3.70;99.90
12817;DHT22;6473;51.552;6.716;2023-03-05T23:13:27;3.60;99.90
12817;DHT22;6473;51.552;6.716;2023-03-05T23:15:54;3.60;99.90
12817;DHT22;6473;51.552;6.716;2023-03-05T23:18:21;3.60;99.90
12817;DHT22;6473;51.552;6.716;2023-03-05T23:25:46;3.70;99.90
12817;DHT22;6473;51.552;6.716;2023-03-05T23:28:17;3.70;99.90
12817;DHT22;6473;51.552;6.716;2023-03-05T23:30:44;3.70;99.90
12817;DHT22;6473;51.552;6.716;2023-03-05T23:33:13;3.70;99.90
12817;DHT22;6473;51.552;6.716;2023-03-05T23:35:42;3.60;99.90